createdAt,value
2019-03-22T00:00:34.351Z,7.95
2019-03-22T00:05:38.739Z,8.12
2019-03-22T00:10:43.123Z,8.02
2019-03-22T00:15:47.588Z,7.99
2019-03-22T00:20:51.952Z,8.00
2019-03-22T00:25:56.294Z,7.92
2019-03-22T00:31:00.668Z,7.79
2019-03-22T00:36:05.215Z,7.82
2019-03-22T00:41:09.570Z,7.74
2019-03-22T00:46:13.964Z,7.54
2019-03-22T00:51:18.335Z,7.53
2019-03-22T00:56:22.693Z,7.31
2019-03-22T01:01:27.243Z,7.81
2019-03-22T01:06:31.591Z,7.51
2019-03-22T01:11:36.145Z,7.36
2019-03-22T01:16:40.663Z,7.34
2019-03-22T01:21:45.693Z,7.31
2019-03-22T01:26:50.077Z,7.33
2019-03-22T01:31:54.594Z,7.33
2019-03-22T01:36:58.979Z,7.35
2019-03-22T01:42:03.419Z,7.52
2019-03-22T01:47:07.765Z,7.23
2019-03-22T01:52:12.154Z,6.92
2019-03-22T01:57:16.626Z,6.99
2019-03-22T02:02:20.975Z,7.19
2019-03-22T02:07:25.346Z,7.15
2019-03-22T02:12:29.692Z,7.13
2019-03-22T02:17:34.064Z,7.17
2019-03-22T02:22:38.487Z,7.04
2019-03-22T02:27:43.201Z,7.04
2019-03-22T02:32:47.578Z,6.86
2019-03-22T02:37:51.919Z,6.90
2019-03-22T02:42:56.392Z,7.11
2019-03-22T02:48:00.743Z,6.68
2019-03-22T02:53:05.099Z,6.68
2019-03-22T02:58:20.570Z,6.65
2019-03-22T03:03:15.587Z,6.78
2019-03-22T03:08:19.926Z,6.70
2019-03-22T03:13:24.309Z,6.66
2019-03-22T03:18:28.659Z,6.80
2019-03-22T03:23:33.026Z,6.57
2019-03-22T03:28:37.716Z,6.37
2019-03-22T03:33:42.249Z,6.70
2019-03-22T03:38:46.588Z,6.60
2019-03-22T03:43:50.950Z,6.30
2019-03-22T03:48:55.325Z,6.35
2019-03-22T03:53:59.723Z,6.28
2019-03-22T03:59:04.082Z,6.28
2019-03-22T04:04:08.475Z,6.21
2019-03-22T04:09:12.827Z,6.27
2019-03-22T04:14:17.210Z,6.03
2019-03-22T04:19:21.585Z,5.97
2019-03-22T04:24:26.005Z,5.90
2019-03-22T04:29:30.368Z,6.11
2019-03-22T04:34:34.783Z,5.97
2019-03-22T04:39:39.164Z,6.23
2019-03-22T04:44:43.553Z,5.84
2019-03-22T04:49:48.797Z,5.83
2019-03-22T04:54:54.870Z,6.00
2019-03-22T04:59:59.537Z,6.03
2019-03-22T05:05:05.022Z,5.41
2019-03-22T05:10:11.143Z,5.76
2019-03-22T05:15:17.187Z,5.62
2019-03-22T05:20:23.390Z,5.63
2019-03-22T05:25:28.009Z,5.93
2019-03-22T05:30:53.595Z,6.10
2019-03-22T05:35:58.136Z,6.00
2019-03-22T05:41:02.528Z,6.00
2019-03-22T05:46:06.879Z,6.35
2019-03-22T05:51:12.298Z,6.67
2019-03-22T05:56:16.711Z,6.69
2019-03-22T06:01:21.070Z,6.83
2019-03-22T06:06:25.451Z,7.07
2019-03-22T06:11:29.823Z,7.17
2019-03-22T06:16:34.198Z,7.26
2019-03-22T06:21:38.593Z,7.55
2019-03-22T06:26:42.950Z,7.11
2019-03-22T06:31:47.329Z,7.27
2019-03-22T06:36:51.710Z,7.77
2019-03-22T06:41:56.129Z,7.60
2019-03-22T06:47:00.582Z,7.88
2019-03-22T06:52:05.018Z,8.39
2019-03-22T06:57:09.462Z,8.91
2019-03-22T07:02:13.852Z,9.24
2019-03-22T07:07:18.359Z,9.04
2019-03-22T07:12:22.715Z,9.47
2019-03-22T07:17:27.071Z,9.36
2019-03-22T07:22:31.555Z,9.20
2019-03-22T07:27:35.898Z,9.25
2019-03-22T07:32:40.263Z,10.13
2019-03-22T07:37:44.632Z,9.88
2019-03-22T07:42:49.063Z,9.80
2019-03-22T07:47:55.819Z,10.21
2019-03-22T07:52:59.525Z,10.55
2019-03-22T07:58:03.956Z,10.28
2019-03-22T08:03:08.337Z,10.22
2019-03-22T08:08:12.693Z,10.85
2019-03-22T08:13:17.055Z,10.71
2019-03-22T08:18:21.442Z,10.68
2019-03-22T08:23:25.808Z,11.02
2019-03-22T08:28:30.210Z,11.03
2019-03-22T08:33:34.768Z,10.89
2019-03-22T08:38:39.134Z,10.89
2019-03-22T08:43:43.488Z,11.26
2019-03-22T08:48:47.851Z,11.13
2019-03-22T08:53:55.393Z,11.21
2019-03-22T08:58:58.335Z,11.25
2019-03-22T09:04:02.672Z,11.40
2019-03-22T09:09:07.884Z,11.53
2019-03-22T09:14:12.270Z,11.73
2019-03-22T09:19:16.604Z,11.94
2019-03-22T09:24:21.002Z,11.87
2019-03-22T09:29:25.401Z,11.95
2019-03-22T09:34:34.008Z,11.97
2019-03-22T09:39:35.904Z,12.38
2019-03-22T09:44:44.459Z,12.62
2019-03-22T09:49:46.349Z,12.89
2019-03-22T09:54:50.741Z,13.00
2019-03-22T09:59:55.122Z,13.11
2019-03-22T10:04:59.476Z,13.34
2019-03-22T10:10:06.455Z,13.53
2019-03-22T10:15:10.847Z,13.61
2019-03-22T10:20:15.412Z,13.46
2019-03-22T10:25:19.823Z,13.59
2019-03-22T10:30:24.158Z,13.97
2019-03-22T10:35:28.550Z,14.01
2019-03-22T10:40:32.939Z,14.12
2019-03-22T10:45:37.399Z,14.03
2019-03-22T10:50:41.840Z,14.06
2019-03-22T10:55:46.249Z,14.17
2019-03-22T11:00:50.609Z,14.29
2019-03-22T11:05:54.991Z,14.29
2019-03-22T11:10:59.351Z,14.29
2019-03-22T11:16:04.064Z,14.36
2019-03-22T11:21:08.554Z,14.49
2019-03-22T11:26:13.035Z,14.64
2019-03-22T11:31:17.411Z,14.80
2019-03-22T11:36:21.837Z,15.00
2019-03-22T11:41:26.239Z,14.71
2019-03-22T11:46:31.145Z,15.04
2019-03-22T11:51:36.181Z,15.61
2019-03-22T11:56:40.569Z,15.24
2019-03-22T12:01:44.913Z,15.16
2019-03-22T12:06:49.420Z,15.65
2019-03-22T12:11:53.748Z,15.47
2019-03-22T12:16:58.172Z,15.42
2019-03-22T12:22:03.635Z,15.64
2019-03-22T12:27:08.082Z,15.67
2019-03-22T12:32:12.445Z,16.04
2019-03-22T12:37:16.835Z,15.59
2019-03-22T12:42:21.221Z,16.13
2019-03-22T12:47:25.643Z,16.31
2019-03-22T12:52:31.384Z,16.03
2019-03-22T12:57:35.850Z,16.23
2019-03-22T13:02:42.478Z,16.48
2019-03-22T13:07:46.696Z,16.50
2019-03-22T13:12:51.157Z,16.68
2019-03-22T13:17:56.029Z,16.60
2019-03-22T13:23:00.409Z,16.38
2019-03-22T13:28:04.777Z,16.35
2019-03-22T13:33:09.152Z,16.74
2019-03-22T13:38:13.554Z,16.46
2019-03-22T13:43:18.012Z,16.55
2019-03-22T13:48:22.474Z,16.54
2019-03-22T13:53:26.846Z,16.62
2019-03-22T13:58:31.235Z,16.60
2019-03-22T14:03:35.594Z,16.79
2019-03-22T14:08:39.977Z,16.73
2019-03-22T14:13:44.335Z,16.62
2019-03-22T14:18:48.730Z,17.28
2019-03-22T14:23:53.085Z,16.80
2019-03-22T14:28:57.470Z,16.88
2019-03-22T14:34:01.834Z,17.38
2019-03-22T14:39:08.456Z,17.45
2019-03-22T14:44:12.842Z,17.41
2019-03-22T14:49:17.210Z,17.07
2019-03-22T14:54:21.629Z,17.09
2019-03-22T14:59:26.069Z,17.53
2019-03-22T15:04:30.417Z,17.68
2019-03-22T15:09:34.799Z,17.70
2019-03-22T15:14:49.558Z,17.10
2019-03-22T15:20:07.683Z,17.67
2019-03-22T15:25:29.969Z,17.61
2019-03-22T15:30:38.920Z,17.24
2019-03-22T15:35:51.182Z,17.64
2019-03-22T15:40:58.528Z,17.07
2019-03-22T15:46:02.951Z,17.21
2019-03-22T15:51:07.396Z,17.73
2019-03-22T15:56:11.746Z,17.04
2019-03-22T16:01:16.293Z,17.16
2019-03-22T16:06:20.964Z,17.61
2019-03-22T16:11:25.300Z,17.25
2019-03-22T16:16:29.678Z,17.06
2019-03-22T16:21:34.083Z,17.01
2019-03-22T16:26:38.474Z,17.02
2019-03-22T16:31:42.894Z,16.76
2019-03-22T16:36:47.239Z,17.16
2019-03-22T16:41:51.679Z,16.59
2019-03-22T16:46:56.064Z,16.47
2019-03-22T16:52:00.449Z,16.46
2019-03-22T16:57:04.906Z,16.11
2019-03-22T17:02:09.294Z,16.10
2019-03-22T17:07:13.636Z,15.85
2019-03-22T17:12:18.034Z,15.79
2019-03-22T17:17:22.404Z,15.74
2019-03-22T17:22:26.811Z,15.64
2019-03-22T17:27:31.182Z,15.37
2019-03-22T17:32:35.530Z,15.37
2019-03-22T17:37:39.910Z,15.24
2019-03-22T17:42:44.346Z,15.04
2019-03-22T17:47:54.051Z,14.95
2019-03-22T17:52:58.841Z,14.91
2019-03-22T17:58:03.654Z,14.94
2019-03-22T18:03:08.092Z,14.94
2019-03-22T18:08:12.469Z,14.80
2019-03-22T18:13:17.062Z,14.72
2019-03-22T18:18:21.479Z,14.78
2019-03-22T18:23:35.502Z,14.64
2019-03-22T18:28:33.441Z,14.51
2019-03-22T18:33:37.836Z,14.48
2019-03-22T18:38:42.325Z,14.48
2019-03-22T18:43:46.768Z,14.43
2019-03-22T18:48:51.174Z,14.35
2019-03-22T18:53:55.557Z,14.31
2019-03-22T18:59:00.995Z,14.34
2019-03-22T19:04:05.476Z,14.33
2019-03-22T19:09:10.017Z,14.22
2019-03-22T19:14:14.447Z,14.13
2019-03-22T19:19:18.801Z,14.09
2019-03-22T19:24:23.350Z,14.04
2019-03-22T19:29:27.769Z,13.91
2019-03-22T19:34:32.117Z,13.82
2019-03-22T19:39:36.659Z,13.78
2019-03-22T19:44:41.049Z,13.71
2019-03-22T19:49:45.544Z,13.50
2019-03-22T19:54:50.009Z,13.39
2019-03-22T19:59:54.447Z,13.31
2019-03-22T20:05:04.726Z,13.19
2019-03-22T20:10:11.545Z,13.36
2019-03-22T20:15:15.925Z,13.34
2019-03-22T20:20:20.273Z,13.20
2019-03-22T20:25:24.640Z,12.83
2019-03-22T20:30:29.038Z,12.79
2019-03-22T20:35:33.412Z,12.87
2019-03-22T20:40:37.789Z,12.41
2019-03-22T20:45:42.152Z,12.24
2019-03-22T20:50:46.600Z,12.32
2019-03-22T20:55:51.027Z,12.24
2019-03-22T21:00:55.404Z,12.07
2019-03-22T21:06:00.089Z,12.19
2019-03-22T21:11:04.707Z,12.13
2019-03-22T21:16:09.286Z,12.17
2019-03-22T21:21:13.741Z,11.73
2019-03-22T21:26:18.101Z,11.86
2019-03-22T21:31:22.464Z,11.89
2019-03-22T21:36:30.081Z,11.81
2019-03-22T21:41:34.450Z,11.83
2019-03-22T21:46:38.854Z,11.82
2019-03-22T21:51:43.616Z,11.83
2019-03-22T21:56:48.069Z,11.79
2019-03-22T22:01:52.485Z,11.49
2019-03-22T22:06:56.967Z,11.34
2019-03-22T22:12:01.428Z,11.21
2019-03-22T22:17:06.056Z,10.98
2019-03-22T22:22:10.735Z,11.18
2019-03-22T22:27:15.186Z,10.83
2019-03-22T22:32:19.638Z,10.74
2019-03-22T22:37:24.599Z,10.61
2019-03-22T22:42:29.384Z,10.68
2019-03-22T22:47:35.504Z,10.34
2019-03-22T22:52:42.675Z,10.36
2019-03-22T22:57:47.078Z,10.56
2019-03-22T23:02:51.611Z,10.49
2019-03-22T23:07:57.216Z,10.39
2019-03-22T23:13:01.734Z,10.14
2019-03-22T23:18:06.427Z,10.43
2019-03-22T23:23:10.885Z,10.21
2019-03-22T23:28:15.405Z,10.30
2019-03-22T23:33:20.998Z,9.98
2019-03-22T23:38:27.143Z,9.88
2019-03-22T23:43:31.601Z,9.96
2019-03-22T23:48:36.047Z,9.73
2019-03-22T23:53:40.507Z,9.69
2019-03-22T23:58:45.061Z,9.66
